Allentown, Illinois
Current Conditions -  °F | °C
As of 12:54 AM on Sunday 26 Oct 2014 (Local Time) from KPIA Reporting Station
Clear Clear  
Wind Chill: 54°   Ceiling: Unl
Heat Index: 54°   Visibility: 10mi
Dew Point: 35°   Wind: 0mph
Humidity: 49%   Direction: NA
Pressure: 30.03"   Gusts: NA
Location:  40.4817°N, 89.4923°W
Report Text: KPIA 260554Z 00000KT 10SM CLR 12/02 A3003 RMK AO2 SLP167 T01220017 10194 20122 402560111 50001
Loading
Personal Weather Stations






























Interactive Weather Map
Tropical Storm Tracking
New forecast layout! Learn more

10-Day Weather Forecast

Advertisements
Track Severe Weather on mobile